Williams, OR

12:01 PM PDT on August 29, 2014 (GMT -0700)
Brookings | Change Station
CLOSE
Current Station
Airport
Location: Brookings,
Elevation: 459 ft
Nearby Weather Stations

Elev 459 ft 42.07 °N, 124.29 °W | Updated 5 minutes ago

Overcast
Overcast
60 °F
Feels Like 60 °F
N
0
Wind Variable Wind from North

Today
High -- | Low -- °F
--% Chance of Precip.
Yesterday
High -- | Low -- °F
Precip. -- in
6:35 AM 7:51 PM
Waxing Crescent, 16% visible
Pressure 30.03 in
Visibility 9.0 miles
Clouds Overcast 500 ft
Dew Point 56 °F
Humidity 87%
Rainfall 0.00 in
Snow Depth Not available.
UV 2 out of 12
Pollen 6.50 out of 12
Air Quality Not available.
Flu Activity Not available.
METAR KBOK 291856Z AUTO 00000KT 9SM OVC005 16/13 A3003 RMK AO2 T01550133 SLP167

More Conditions Fewer Conditions

Pressure 30.03 in
Visibility 9.0 miles
Clouds Overcast 500 ft
Dew Point 56 °F
Humidity 87%
Rainfall 0.00 in
Snow Depth Not available.
UV 2 out of 12
Pollen 6.50 out of 12
Air Quality Not available.
Flu Activity Not available.
METAR KBOK 291856Z AUTO 00000KT 9SM OVC005 16/13 A3003 RMK AO2 T01550133 SLP167

More Conditions Fewer Conditions

10-Day Weather Forecast

Almanac

Astronomy

Aug. 29, 2014 Rise Set
Actual Time 6:35 AM PDT 7:51 PM PDT
Civil Twilight 6:06 AM PDT 8:20 PM PDT
Nautical Twilight 5:31 AM PDT 8:55 PM PDT
Astronomical Twilight 4:54 AM PDT 9:31 PM PDT
Moon 10:35 AM PDT 9:47 PM PDT
Length of Visible Light 14h 14m
Length of Day
13h 16m
Tomorrow will be 2m 43s shorter.
Waxing Crescent, 16% of the Moon is Illuminated
Today
Waxing Crescent
Sep 2
First Quarter
Sep 8
Full
Sep 15
Last Quarter
Sep 24
New

Today's Extremes

State Highs State Lows

Community

WunderPhotos

Upload Photos

1,748,314 photos uploaded!

Nearby

Snow Depth

Station Depth Elevation
Fish Lake 0 in 4665 ft
Billie Creek Divide 0 in 5300 ft
Fourmile Lake 1 in 6000 ft
Cold Springs Camp 0 in 6100 ft
Sevenmile Marsh 0 in 6200 ft

Earthquake Activity

City Distance Mag. Time & Date
No recent earthquake activity has been reported nearby.
Minimum magnitude displayed is 2.5.

Coastal Water Temperatures

Place Temperature
No Stations Reporting

Nearby Weather Stations